Time;durP1;ratioP1;P1;durP2;ratioP2;P2;SDS_P1;SDS_P2;PMS_P1;PMS_P2;Temp;Humidity;BMP_temperature;BMP_pressure;BME280_temperature;BME280_humidity;BME280_pressure;Samples;Min_cycle;Max_cycle;Signal;HPM_P1;HPM_P2
2021/10/13 00:00:42;;;;;;;9.75;3.25;;;;;;;6.18;100.00;102254.22;5233543;28;20025;-68
2021/10/13 00:03:13;;;;;;;8.27;4.10;;;;;;;6.23;100.00;102264.41;5236667;28;20013;-67
2021/10/13 00:05:44;;;;;;;11.05;4.18;;;;;;;6.24;100.00;102263.50;5234448;28;20033;-68
2021/10/13 00:08:16;;;;;;;9.00;3.75;;;;;;;6.26;100.00;102259.94;5236546;28;20108;-68
2021/10/13 00:10:47;;;;;;;9.52;4.15;;;;;;;6.24;100.00;102247.88;5236394;28;20045;-68
2021/10/13 00:13:19;;;;;;;7.95;4.00;;;;;;;6.19;100.00;102250.69;5236710;28;20029;-68
2021/10/13 00:15:50;;;;;;;8.40;4.03;;;;;;;6.33;100.00;102250.94;5233499;28;20084;-69
2021/10/13 00:18:21;;;;;;;8.10;3.63;;;;;;;6.31;100.00;102244.09;5234862;28;20215;-68
2021/10/13 00:20:52;;;;;;;7.35;3.75;;;;;;;6.26;100.00;102240.88;5236586;28;20033;-68
2021/10/13 00:23:24;;;;;;;8.15;3.70;;;;;;;6.24;100.00;102237.47;5236483;28;20025;-68
2021/10/13 00:25:55;;;;;;;9.00;3.70;;;;;;;6.24;100.00;102243.53;5236622;28;20076;-69
2021/10/13 00:28:26;;;;;;;9.43;4.07;;;;;;;6.27;100.00;102251.19;5236486;28;20025;-68
2021/10/13 00:30:58;;;;;;;7.88;4.10;;;;;;;6.29;100.00;102253.75;5234947;28;20026;-68
2021/10/13 00:33:29;;;;;;;8.15;4.20;;;;;;;6.28;100.00;102259.84;5235129;28;20491;-69
2021/10/13 00:36:00;;;;;;;6.40;3.95;;;;;;;6.31;100.00;102257.13;5235593;28;20065;-69
2021/10/13 00:38:32;;;;;;;9.40;4.72;;;;;;;6.33;100.00;102257.91;5236954;28;20017;-68
2021/10/13 00:41:03;;;;;;;9.27;4.80;;;;;;;6.37;100.00;102259.47;5234795;28;20017;-68
2021/10/13 00:43:34;;;;;;;14.90;4.80;;;;;;;6.43;100.00;102263.53;5236635;28;20096;-68
2021/10/13 00:46:06;;;;;;;9.10;4.68;;;;;;;6.44;100.00;102262.59;5237068;28;20450;-68
2021/10/13 00:48:37;;;;;;;13.07;5.55;;;;;;;6.45;100.00;102251.31;5234347;28;20121;-69
2021/10/13 00:51:08;;;;;;;6.97;4.13;;;;;;;6.47;100.00;102250.31;5234344;28;20037;-68
2021/10/13 00:53:39;;;;;;;9.68;4.85;;;;;;;6.51;100.00;102241.44;5235900;28;20064;-68
2021/10/13 00:56:11;;;;;;;13.43;5.18;;;;;;;6.47;100.00;102245.09;5234076;28;20441;-69
2021/10/13 00:58:42;;;;;;;12.68;4.72;;;;;;;6.39;100.00;102236.78;5235908;28;20133;-68
2021/10/13 01:01:24;;;;;;;9.57;4.28;;;;;;;6.45;100.00;102243.50;5236527;28;20025;-68
2021/10/13 01:04:04;;;;;;;7.55;4.82;;;;;;;6.39;100.00;102243.75;5233801;28;20064;-68
2021/10/13 01:06:53;;;;;;;10.73;5.40;;;;;;;6.43;100.00;102253.13;5234629;28;20034;-68
2021/10/13 01:09:32;;;;;;;8.57;4.68;;;;;;;6.28;100.00;102258.09;5236452;28;20075;-69
2021/10/13 01:12:16;;;;;;;6.57;3.65;;;;;;;6.33;100.00;102255.31;5235260;28;20040;-68
2021/10/13 01:15:08;;;;;;;7.88;4.13;;;;;;;6.21;100.00;102263.63;5234764;28;20025;-69
2021/10/13 01:17:52;;;;;;;10.13;4.07;;;;;;;6.25;100.00;102267.78;5235609;28;20037;-69
2021/10/13 01:20:54;;;;;;;6.53;3.90;;;;;;;6.23;100.00;102267.03;5235149;28;20037;-68
2021/10/13 01:24:03;;;;;;;10.35;4.35;;;;;;;6.25;100.00;102266.06;5234396;28;20037;-68
2021/10/13 01:26:52;;;;;;;8.55;4.53;;;;;;;6.19;100.00;102265.47;5235244;28;20483;-69
2021/10/13 01:29:24;;;;;;;10.55;4.43;;;;;;;6.11;100.00;102259.75;5234343;28;20410;-69
2021/10/13 01:32:12;;;;;;;8.18;4.70;;;;;;;6.24;100.00;102261.75;5234701;28;20128;-68
2021/10/13 01:34:46;;;;;;;11.27;5.00;;;;;;;6.19;100.00;102270.66;5234599;28;20124;-68
2021/10/13 01:37:20;;;;;;;10.50;4.40;;;;;;;6.12;100.00;102261.44;5235940;28;20082;-68
2021/10/13 01:39:55;;;;;;;10.85;4.63;;;;;;;6.15;100.00;102263.91;5233141;28;20124;-68
2021/10/13 01:42:30;;;;;;;8.48;4.55;;;;;;;6.19;100.00;102265.47;5235372;28;20045;-68
2021/10/13 01:45:02;;;;;;;12.30;4.93;;;;;;;6.07;100.00;102259.03;5234711;28;20057;-69
2021/10/13 01:47:35;;;;;;;12.65;5.07;;;;;;;6.02;100.00;102271.38;5233418;28;20037;-69
2021/10/13 01:50:07;;;;;;;;;;;;;;;6.43;100.00;102268.72;5235658;28;20033;-68
2021/10/13 01:52:40;;;;;;;8.80;4.78;;;;;;;6.03;100.00;102273.94;5234841;28;19921;-68
2021/10/13 01:55:13;;;;;;;11.93;4.22;;;;;;;5.95;100.00;102273.44;5233105;28;20490;-68
2021/10/13 01:57:50;;;;;;;11.90;4.47;;;;;;;6.01;100.00;102265.34;5234534;28;20048;-68
2021/10/13 02:00:22;;;;;;;6.00;3.67;;;;;;;5.86;100.00;102272.00;5233404;28;20025;-68
2021/10/13 02:02:56;;;;;;;9.23;4.45;;;;;;;5.86;100.00;102276.38;5235347;28;20028;-68
2021/10/13 02:05:28;;;;;;;7.00;3.83;;;;;;;5.84;100.00;102267.78;5232470;28;20124;-68
2021/10/13 02:08:00;;;;;;;7.35;4.35;;;;;;;5.81;100.00;102265.31;5234551;28;20503;-69
2021/10/13 02:10:33;;;;;;;9.52;4.55;;;;;;;5.77;100.00;102271.56;5234373;28;20057;-68
2021/10/13 02:13:07;;;;;;;8.50;4.30;;;;;;;5.79;100.00;102267.13;5233501;28;20537;-68
2021/10/13 02:15:42;;;;;;;7.85;4.13;;;;;;;5.73;100.00;102280.41;5233693;28;20116;-68
2021/10/13 02:18:23;;;;;;;9.18;4.32;;;;;;;5.74;100.00;102276.88;5234143;28;20032;-68
2021/10/13 02:20:56;;;;;;;8.30;4.30;;;;;;;5.63;100.00;102272.13;5234429;28;20100;-68
2021/10/13 02:23:32;;;;;;;10.20;4.28;;;;;;;5.71;100.00;102288.25;5232792;28;20026;-68
2021/10/13 02:26:18;;;;;;;7.85;3.70;;;;;;;5.74;100.00;102288.13;5235080;28;20017;-68
2021/10/13 02:28:56;;;;;;;13.20;4.32;;;;;;;5.66;100.00;102290.19;5232855;28;20034;-68
2021/10/13 02:31:27;;;;;;;10.95;4.40;;;;;;;5.62;100.00;102293.84;5231958;28;20403;-68
2021/10/13 02:33:58;;;;;;;6.03;3.85;;;;;;;5.64;100.00;102296.34;5234685;28;20032;-68
2021/10/13 02:36:30;;;;;;;7.22;3.95;;;;;;;5.55;100.00;102303.63;5234756;28;20018;-68
2021/10/13 02:39:04;;;;;;;6.63;3.88;;;;;;;5.53;100.00;102299.38;5232243;28;20109;-68
2021/10/13 02:41:36;;;;;;;5.65;3.40;;;;;;;5.54;100.00;102301.09;5234049;28;20029;-68
2021/10/13 02:44:08;;;;;;;7.93;4.38;;;;;;;5.47;100.00;102295.31;5233563;28;20503;-69
2021/10/13 02:46:51;;;;;;;7.72;4.75;;;;;;;5.47;100.00;102290.09;5233610;28;20034;-68
2021/10/13 02:49:45;;;;;;;7.47;3.70;;;;;;;5.52;100.00;102285.56;5232655;28;20028;-68
2021/10/13 02:52:42;;;;;;;10.95;4.88;;;;;;;5.46;100.00;102285.81;5234149;28;20032;-68
2021/10/13 02:55:21;;;;;;;9.43;4.32;;;;;;;5.49;100.00;102288.31;5234043;28;20025;-68
2021/10/13 02:58:06;;;;;;;5.95;3.92;;;;;;;5.52;100.00;102280.34;5231657;28;20539;-68
2021/10/13 03:00:39;;;;;;;9.65;4.35;;;;;;;5.44;100.00;102287.63;5234267;28;20033;-68
2021/10/13 03:03:23;;;;;;;8.47;4.07;;;;;;;5.46;100.00;102292.78;5233726;28;20056;-69
2021/10/13 03:05:58;;;;;;;6.07;4.05;;;;;;;5.40;100.00;102288.66;5230940;28;20079;-68
2021/10/13 03:08:32;;;;;;;7.78;3.92;;;;;;;5.36;100.00;102297.47;5232066;28;20021;-68
2021/10/13 03:11:05;;;;;;;11.45;4.47;;;;;;;5.31;100.00;102282.06;5232849;28;20053;-68
2021/10/13 03:13:38;;;;;;;10.13;4.43;;;;;;;5.41;100.00;102290.34;5233075;28;20084;-68
2021/10/13 03:16:11;;;;;;;6.57;4.25;;;;;;;5.34;100.00;102294.94;5231731;28;20030;-68
2021/10/13 03:18:43;;;;;;;7.07;4.50;;;;;;;5.38;100.00;102293.09;5231926;28;20025;-68
2021/10/13 03:21:15;;;;;;;7.20;4.10;;;;;;;5.37;100.00;102294.81;5233881;28;20031;-68
2021/10/13 03:23:46;;;;;;;6.32;3.92;;;;;;;5.37;100.00;102299.16;5230926;28;20025;-68
2021/10/13 03:26:17;;;;;;;8.68;4.53;;;;;;;5.36;100.00;102310.47;5231610;28;20108;-68
2021/10/13 03:28:49;;;;;;;7.53;3.83;;;;;;;5.39;100.00;102306.91;5232319;28;20099;-68
2021/10/13 03:31:20;;;;;;;6.43;3.55;;;;;;;5.36;100.00;102313.06;5232123;28;20028;-68
2021/10/13 03:33:52;;;;;;;5.65;3.88;;;;;;;5.34;100.00;102312.28;5232247;28;20076;-68
2021/10/13 03:36:24;;;;;;;9.38;4.22;;;;;;;5.32;100.00;102316.69;5231955;28;20518;-68
2021/10/13 03:38:55;;;;;;;5.25;3.75;;;;;;;5.29;100.00;102316.81;5233370;28;20029;-68
2021/10/13 03:41:26;;;;;;;5.20;4.10;;;;;;;5.29;100.00;102322.00;5232507;28;20021;-68
2021/10/13 03:43:58;;;;;;;8.57;4.03;;;;;;;5.31;100.00;102321.06;5231080;28;20084;-69
2021/10/13 03:46:29;;;;;;;5.82;3.90;;;;;;;5.28;100.00;102317.72;5233307;28;20049;-68
2021/10/13 03:49:01;;;;;;;7.38;3.80;;;;;;;5.25;100.00;102326.47;5233123;28;20498;-68
2021/10/13 03:51:32;;;;;;;10.48;4.82;;;;;;;5.22;100.00;102323.16;5232395;28;20103;-68
2021/10/13 03:54:04;;;;;;;8.10;4.05;;;;;;;5.29;100.00;102322.00;5229932;28;20459;-68
2021/10/13 03:56:35;;;;;;;6.90;4.25;;;;;;;5.32;100.00;102327.09;5232989;28;20033;-69
2021/10/13 03:59:06;;;;;;;6.07;3.88;;;;;;;5.35;100.00;102339.97;5232687;28;20784;-68
2021/10/13 04:01:38;;;;;;;6.18;3.90;;;;;;;5.40;100.00;102340.63;5229457;28;20433;-68
2021/10/13 04:04:09;;;;;;;6.00;4.00;;;;;;;5.42;100.00;102335.34;5232075;28;20475;-68
2021/10/13 04:06:40;;;;;;;6.32;3.95;;;;;;;5.40;100.00;102338.03;5223916;28;20399;-68
2021/10/13 04:09:12;;;;;;;4.93;3.60;;;;;;;5.42;100.00;102327.56;5225660;28;20026;-68
2021/10/13 04:11:43;;;;;;;5.07;3.58;;;;;;;5.41;100.00;102323.28;5225051;28;20053;-68
2021/10/13 04:14:14;;;;;;;7.70;4.80;;;;;;;5.45;100.00;102325.69;5231684;28;20515;-68
2021/10/13 04:16:45;;;;;;;7.38;4.10;;;;;;;5.52;100.00;102327.16;5231100;28;20478;-68
2021/10/13 04:19:17;;;;;;;6.97;4.10;;;;;;;5.54;100.00;102334.91;5223977;28;20117;-69
2021/10/13 04:21:49;;;;;;;6.78;4.35;;;;;;;5.54;100.00;102327.94;5232670;28;20021;-68
2021/10/13 04:24:20;;;;;;;7.88;3.95;;;;;;;5.64;100.00;102340.56;5230420;28;20057;-68
2021/10/13 04:26:51;;;;;;;8.45;4.05;;;;;;;5.64;100.00;102340.56;5230915;28;20025;-68
2021/10/13 04:29:23;;;;;;;5.75;4.38;;;;;;;5.65;100.00;102335.31;5228568;28;20304;-68
2021/10/13 04:31:54;;;;;;;7.32;4.18;;;;;;;5.67;100.00;102340.44;5229581;28;20025;-68
2021/10/13 04:34:26;;;;;;;6.60;4.20;;;;;;;5.75;100.00;102344.41;5232361;28;20220;-68
2021/10/13 04:36:57;;;;;;;6.63;4.00;;;;;;;5.79;100.00;102337.34;5230750;28;20026;-68
2021/10/13 04:39:28;;;;;;;6.40;4.15;;;;;;;5.84;100.00;102335.41;5232671;28;20025;-68
2021/10/13 04:41:59;;;;;;;7.57;4.07;;;;;;;5.89;100.00;102330.84;5231630;28;20048;-68
2021/10/13 04:44:31;;;;;;;7.65;4.45;;;;;;;5.92;100.00;102337.69;5231048;28;20029;-68
2021/10/13 04:47:02;;;;;;;9.15;4.57;;;;;;;5.94;100.00;102338.50;5230688;28;20284;-68
2021/10/13 04:49:34;;;;;;;8.30;4.20;;;;;;;5.99;100.00;102342.63;5234968;28;20025;-68
2021/10/13 04:52:05;;;;;;;7.03;4.35;;;;;;;6.02;100.00;102337.28;5235808;28;20021;-68
2021/10/13 04:54:36;;;;;;;5.95;4.35;;;;;;;6.12;100.00;102340.34;5234013;28;20036;-69
2021/10/13 04:57:08;;;;;;;9.73;4.32;;;;;;;6.16;100.00;102351.47;5233375;28;20144;-68
2021/10/13 04:59:39;;;;;;;8.10;3.92;;;;;;;6.16;100.00;102344.50;5233137;28;20021;-68
2021/10/13 05:02:10;;;;;;;6.60;4.30;;;;;;;6.21;100.00;102334.75;5236797;28;20067;-68
2021/10/13 05:04:42;;;;;;;6.07;3.78;;;;;;;6.26;100.00;102344.97;5233293;28;20029;-69
2021/10/13 05:07:13;;;;;;;6.07;4.05;;;;;;;6.31;100.00;102351.66;5236509;28;20022;-68
2021/10/13 05:09:44;;;;;;;7.78;4.25;;;;;;;6.32;100.00;102347.28;5231163;28;20132;-69
2021/10/13 05:12:16;;;;;;;8.63;3.72;;;;;;;6.39;100.00;102348.72;5234762;28;20029;-69
2021/10/13 05:14:47;;;;;;;7.10;3.83;;;;;;;6.43;100.00;102359.84;5234463;28;20044;-69
2021/10/13 05:17:21;;;;;;;6.25;4.10;;;;;;;6.49;100.00;102364.81;5230915;28;20022;-69
2021/10/13 05:19:52;;;;;;;6.65;3.83;;;;;;;6.47;100.00;102364.84;5234475;28;20433;-69
2021/10/13 05:22:24;;;;;;;8.65;4.20;;;;;;;6.50;100.00;102362.13;5234538;28;20029;-69
2021/10/13 05:24:55;;;;;;;7.57;4.22;;;;;;;6.54;100.00;102361.06;5234200;28;20675;-68
2021/10/13 05:27:26;;;;;;;6.57;3.70;;;;;;;6.56;100.00;102363.63;5231871;28;20097;-68
2021/10/13 05:29:58;;;;;;;7.60;4.10;;;;;;;6.61;100.00;102359.06;5234636;28;20029;-69
2021/10/13 05:32:29;;;;;;;7.93;4.18;;;;;;;6.64;100.00;102363.28;5233404;28;20056;-69
2021/10/13 05:35:00;;;;;;;7.95;4.20;;;;;;;6.54;100.00;102340.25;5231753;28;20028;-69
2021/10/13 05:37:32;;;;;;;8.38;4.50;;;;;;;6.65;100.00;102365.81;5233351;28;20708;-69
2021/10/13 05:40:03;;;;;;;9.07;3.92;;;;;;;6.67;100.00;102364.00;5235119;28;20022;-70
2021/10/13 05:42:35;;;;;;;4.68;3.55;;;;;;;6.71;100.00;102357.75;5234796;28;20029;-69
2021/10/13 05:45:06;;;;;;;6.53;3.50;;;;;;;6.70;100.00;102361.25;5233950;28;20029;-69
2021/10/13 05:47:38;;;;;;;9.88;4.70;;;;;;;6.69;100.00;102351.75;5230380;28;20037;-70
2021/10/13 05:50:09;;;;;;;10.13;4.47;;;;;;;6.73;100.00;102371.53;5232730;28;20044;-69
2021/10/13 05:52:40;;;;;;;6.15;4.00;;;;;;;6.72;100.00;102369.00;5234953;28;20317;-70
2021/10/13 05:55:12;;;;;;;6.53;4.13;;;;;;;6.76;100.00;102367.94;5232475;28;20029;-70
2021/10/13 05:57:43;;;;;;;9.80;4.10;;;;;;;6.75;100.00;102374.09;5234897;28;20111;-70
2021/10/13 06:00:15;;;;;;;8.30;4.28;;;;;;;6.80;100.00;102375.56;5234072;28;20032;-70
2021/10/13 06:02:46;;;;;;;9.73;4.45;;;;;;;6.85;100.00;102387.53;5233988;28;20411;-70
2021/10/13 06:05:17;;;;;;;9.52;3.65;;;;;;;6.86;100.00;102390.09;5233581;28;20036;-69
2021/10/13 06:07:49;;;;;;;8.75;3.88;;;;;;;6.89;100.00;102392.53;5232392;28;20524;-70
2021/10/13 06:10:20;;;;;;;7.63;3.85;;;;;;;6.91;100.00;102395.94;5231261;28;20057;-70
2021/10/13 06:12:51;;;;;;;9.13;4.53;;;;;;;6.95;100.00;102405.28;5223635;28;20029;-70
2021/10/13 06:15:24;;;;;;;8.70;4.28;;;;;;;6.96;100.00;102396.56;5230629;28;20360;-70
2021/10/13 06:17:55;;;;;;;9.90;5.03;;;;;;;6.99;100.00;102404.25;5230152;28;20021;-70
2021/10/13 06:20:26;;;;;;;15.27;5.50;;;;;;;7.06;100.00;102402.22;5228897;28;20017;-70
2021/10/13 06:22:57;;;;;;;8.32;4.70;;;;;;;7.06;100.00;102407.44;5232550;28;20048;-70
2021/10/13 06:25:30;;;;;;;9.05;4.60;;;;;;;7.09;100.00;102409.06;5235211;28;20026;-70
2021/10/13 06:28:01;;;;;;;8.63;5.03;;;;;;;7.17;100.00;102412.16;5233586;28;20033;-70
2021/10/13 06:30:37;;;;;;;12.93;4.97;;;;;;;7.18;100.00;102406.03;5232021;28;20603;-70
2021/10/13 06:33:08;;;;;;;9.10;4.55;;;;;;;7.27;100.00;102400.38;5226461;28;20111;-70
2021/10/13 06:35:39;;;;;;;9.38;5.22;;;;;;;7.32;100.00;102409.69;5217511;28;20520;-70
2021/10/13 06:38:11;;;;;;;10.88;4.68;;;;;;;7.35;100.00;102406.13;5224258;28;20145;-70
2021/10/13 06:40:42;;;;;;;11.45;5.38;;;;;;;7.38;100.00;102413.75;5229202;28;20032;-70
2021/10/13 06:43:13;;;;;;;8.73;5.15;;;;;;;7.30;100.00;102395.03;5215746;28;20031;-70
2021/10/13 06:45:45;;;;;;;10.57;5.38;;;;;;;7.41;100.00;102415.41;5218624;28;20110;-70
2021/10/13 06:48:17;;;;;;;8.52;5.07;;;;;;;7.39;100.00;102420.69;5232181;28;20025;-70
2021/10/13 06:50:50;;;;;;;6.70;4.68;;;;;;;7.45;100.00;102409.97;5231365;28;20037;-70
2021/10/13 06:53:21;;;;;;;9.88;5.20;;;;;;;7.43;100.00;102405.75;5232962;28;20026;-70
2021/10/13 06:55:55;;;;;;;7.10;4.75;;;;;;;7.55;100.00;102423.44;5232807;28;20028;-70
2021/10/13 06:58:26;;;;;;;;;;;;;;;7.87;100.00;102421.88;5230503;28;20029;-70
2021/10/13 07:00:57;;;;;;;8.77;4.78;;;;;;;7.73;100.00;102433.00;5226012;28;19983;-70
2021/10/13 07:03:29;;;;;;;10.70;4.72;;;;;;;7.72;100.00;102439.13;5232776;28;20018;-70
2021/10/13 07:06:00;;;;;;;10.35;5.22;;;;;;;7.76;100.00;102437.22;5231831;28;20021;-70
2021/10/13 07:08:31;;;;;;;9.93;5.10;;;;;;;7.79;100.00;102442.28;5230104;28;20025;-70
2021/10/13 07:11:04;;;;;;;9.88;4.82;;;;;;;7.84;100.00;102442.94;5230168;28;20045;-70
2021/10/13 07:13:37;;;;;;;10.63;5.30;;;;;;;7.91;100.00;102428.66;5232440;28;20033;-70
2021/10/13 07:16:08;;;;;;;8.98;5.50;;;;;;;8.00;100.00;102433.44;5225523;28;20029;-70
2021/10/13 07:18:39;;;;;;;13.05;5.80;;;;;;;8.04;100.00;102437.59;5228955;28;20081;-70
2021/10/13 07:21:11;;;;;;;9.30;5.53;;;;;;;8.13;100.00;102446.72;5232124;28;20119;-70
2021/10/13 07:23:42;;;;;;;10.45;5.88;;;;;;;8.24;100.00;102454.03;5232331;28;20013;-70
2021/10/13 07:26:13;;;;;;;12.57;6.18;;;;;;;8.28;100.00;102451.19;5227694;28;20036;-70
2021/10/13 07:28:44;;;;;;;13.18;6.28;;;;;;;8.33;100.00;102452.72;5231250;28;20033;-70
2021/10/13 07:31:16;;;;;;;11.23;5.50;;;;;;;8.46;100.00;102453.84;5229601;28;20021;-70
2021/10/13 07:33:47;;;;;;;11.68;6.13;;;;;;;8.53;100.00;102453.47;5229560;28;20037;-70
2021/10/13 07:36:19;;;;;;;9.02;5.85;;;;;;;8.55;100.00;102457.75;5225508;28;20382;-70
2021/10/13 07:38:50;;;;;;;10.63;6.40;;;;;;;8.62;100.00;102456.53;5231692;28;20042;-70
2021/10/13 07:41:23;;;;;;;11.43;6.28;;;;;;;8.68;100.00;102453.63;5231797;28;20021;-70
2021/10/13 07:43:54;;;;;;;11.40;5.82;;;;;;;8.75;100.00;102453.22;5230862;28;20079;-70
2021/10/13 07:46:25;;;;;;;13.55;6.18;;;;;;;8.85;100.00;102452.75;5230037;28;20025;-70
2021/10/13 07:48:57;;;;;;;11.73;5.97;;;;;;;8.90;100.00;102451.59;5230908;28;20063;-70
2021/10/13 07:51:28;;;;;;;14.45;6.20;;;;;;;8.96;100.00;102460.88;5228281;28;20029;-70
2021/10/13 07:53:59;;;;;;;10.07;6.07;;;;;;;9.04;100.00;102457.84;5230856;28;20025;-70
2021/10/13 07:56:31;;;;;;;14.77;7.38;;;;;;;9.12;100.00;102463.53;5228470;28;20105;-70
2021/10/13 07:59:02;;;;;;;11.38;6.35;;;;;;;9.11;100.00;102456.59;5231595;28;20400;-70
2021/10/13 08:01:33;;;;;;;13.63;6.68;;;;;;;9.24;100.00;102475.94;5231132;28;20024;-70
2021/10/13 08:04:05;;;;;;;13.45;6.25;;;;;;;9.34;100.00;102485.00;5230175;28;20103;-70
2021/10/13 08:06:36;;;;;;;10.38;5.93;;;;;;;9.37;100.00;102476.16;5230723;28;20597;-70
2021/10/13 08:09:07;;;;;;;10.25;6.82;;;;;;;9.45;100.00;102479.19;5232330;28;20579;-70
2021/10/13 08:11:39;;;;;;;12.05;6.05;;;;;;;9.45;100.00;102473.97;5229516;28;20060;-70
2021/10/13 08:14:11;;;;;;;11.90;5.95;;;;;;;9.59;100.00;102473.22;5232210;28;20111;-70
2021/10/13 08:16:42;;;;;;;14.52;6.43;;;;;;;9.66;100.00;102478.03;5230412;28;20033;-70
2021/10/13 08:19:14;;;;;;;13.20;6.63;;;;;;;9.74;100.00;102475.00;5229750;28;20111;-70
2021/10/13 08:21:45;;;;;;;15.50;5.57;;;;;;;9.87;100.00;102483.84;5234103;28;20471;-70
2021/10/13 08:24:16;;;;;;;13.80;6.32;;;;;;;9.93;100.00;102483.50;5226604;28;20578;-70
2021/10/13 08:26:48;;;;;;;13.65;7.10;;;;;;;9.98;100.00;102475.41;5235123;28;20068;-71
2021/10/13 08:29:19;;;;;;;11.70;6.30;;;;;;;10.08;100.00;102476.56;5229826;28;20104;-71
2021/10/13 08:31:50;;;;;;;14.88;6.03;;;;;;;10.17;100.00;102478.66;5234410;28;20033;-70
2021/10/13 08:34:22;;;;;;;11.32;6.13;;;;;;;10.28;100.00;102475.47;5233022;28;20049;-70
2021/10/13 08:36:53;;;;;;;11.98;6.18;;;;;;;10.34;100.00;102480.34;5234892;28;20104;-70
2021/10/13 08:39:24;;;;;;;9.18;5.72;;;;;;;10.43;100.00;102482.44;5232443;28;20572;-71
2021/10/13 08:41:55;;;;;;;16.25;6.25;;;;;;;10.55;100.00;102480.88;5234049;28;20721;-71
2021/10/13 08:44:27;;;;;;;10.73;6.00;;;;;;;10.61;100.00;102477.91;5236263;28;20061;-69
2021/10/13 08:46:58;;;;;;;9.48;6.03;;;;;;;10.65;100.00;102487.28;5229936;28;20083;-71
2021/10/13 08:49:30;;;;;;;7.28;4.93;;;;;;;10.69;100.00;102485.31;5235784;28;20626;-71
2021/10/13 08:52:07;;;;;;;7.10;4.40;;;;;;;10.79;100.00;102480.34;5235379;28;20602;-70
2021/10/13 08:54:40;;;;;;;11.82;5.43;;;;;;;10.82;100.00;102481.00;5232490;28;20494;-71
2021/10/13 08:57:23;;;;;;;9.93;4.75;;;;;;;10.95;100.00;102486.38;5235307;28;20069;-71
2021/10/13 08:59:54;;;;;;;9.60;4.95;;;;;;;10.84;100.00;102471.28;5233725;28;20060;-71
2021/10/13 09:02:40;;;;;;;10.80;4.15;;;;;;;11.08;100.00;102481.22;5233164;28;20029;-71
2021/10/13 09:05:13;;;;;;;9.45;4.32;;;;;;;11.07;100.00;102484.81;5233882;28;20075;-71
2021/10/13 09:07:49;;;;;;;10.05;4.95;;;;;;;11.21;100.00;102497.91;5235388;28;20029;-71
2021/10/13 09:10:31;;;;;;;8.93;4.40;;;;;;;11.33;100.00;102489.28;5229375;28;20080;-72
2021/10/13 09:13:10;;;;;;;7.18;3.88;;;;;;;11.32;100.00;102497.25;5231937;28;20105;-70
2021/10/13 09:15:57;;;;;;;10.88;4.20;;;;;;;11.40;100.00;102493.22;5233231;28;20060;-70
2021/10/13 09:18:28;;;;;;;5.97;3.28;;;;;;;11.37;100.00;102497.81;5231842;28;20120;-70
2021/10/13 09:21:00;;;;;;;8.90;3.90;;;;;;;11.50;100.00;102497.91;5231340;28;20029;-70
2021/10/13 09:23:31;;;;;;;10.38;4.00;;;;;;;11.54;100.00;102492.34;5234228;28;20480;-70
2021/10/13 09:26:04;;;;;;;6.82;3.35;;;;;;;11.61;100.00;102503.31;5235418;28;20030;-70
2021/10/13 09:28:36;;;;;;;7.07;3.10;;;;;;;11.71;100.00;102504.44;5233434;28;20052;-70
2021/10/13 09:31:16;;;;;;;7.20;3.00;;;;;;;11.86;100.00;102506.13;5232472;28;20037;-70
2021/10/13 09:34:01;;;;;;;10.40;2.97;;;;;;;11.97;100.00;102507.19;5234050;28;20038;-70
2021/10/13 09:36:41;;;;;;;8.18;3.08;;;;;;;12.03;100.00;102506.81;5233406;28;20021;-70
2021/10/13 09:39:18;;;;;;;7.97;2.88;;;;;;;12.05;100.00;102507.56;5232243;28;20033;-70
2021/10/13 09:42:09;;;;;;;5.78;3.50;;;;;;;12.29;100.00;102500.72;5233310;28;20063;-71
2021/10/13 09:45:02;;;;;;;6.85;4.00;;;;;;;12.23;100.00;102505.50;5234563;28;20037;-70
2021/10/13 09:47:35;;;;;;;6.93;2.70;;;;;;;12.31;100.00;102509.34;5231214;28;20037;-70
2021/10/13 09:50:12;;;;;;;6.05;2.80;;;;;;;12.45;100.00;102508.41;5232783;28;20380;-70
2021/10/13 09:52:43;;;;;;;6.22;2.80;;;;;;;12.45;100.00;102508.41;5233324;28;20038;-70
2021/10/13 09:55:14;;;;;;;6.60;2.60;;;;;;;12.61;100.00;102511.75;5234854;28;20479;-70
2021/10/13 09:57:48;;;;;;;7.78;2.50;;;;;;;12.56;100.00;102516.44;5231951;28;20667;-71
2021/10/13 10:00:21;;;;;;;8.93;2.78;;;;;;;12.66;100.00;102507.00;5230126;28;20029;-70
2021/10/13 10:02:55;;;;;;;;;;;;;;;13.03;100.00;102508.91;5233975;28;20554;-70
2021/10/13 10:05:35;;;;;;;7.35;2.70;;;;;;;12.85;100.00;102511.88;5233756;28;19917;-70
2021/10/13 10:08:10;;;;;;;9.15;2.38;;;;;;;12.81;100.00;102512.19;5233567;28;20044;-71
2021/10/13 10:11:03;;;;;;;8.77;2.70;;;;;;;12.98;100.00;102514.50;5232199;28;20049;-71
2021/10/13 10:13:41;;;;;;;8.88;2.70;;;;;;;13.03;100.00;102516.78;5232566;28;20061;-70
2021/10/13 10:16:12;;;;;;;6.88;2.42;;;;;;;12.96;100.00;102515.56;5232820;28;20361;-71
2021/10/13 10:18:44;;;;;;;7.45;2.67;;;;;;;12.97;100.00;102525.97;5233091;28;20021;-71
2021/10/13 10:21:22;;;;;;;4.63;2.30;;;;;;;13.02;100.00;102520.38;5234649;28;20033;-70
2021/10/13 10:24:17;;;;;;;9.13;2.53;;;;;;;13.09;100.00;102529.53;5233078;28;20608;-70
2021/10/13 10:26:49;;;;;;;7.70;2.10;;;;;;;13.12;100.00;102537.22;5232878;28;20495;-71
2021/10/13 10:29:20;;;;;;;5.97;2.42;;;;;;;13.24;100.00;102528.53;5231614;28;20112;-71
2021/10/13 10:31:56;;;;;;;5.05;1.85;;;;;;;13.27;100.00;102538.00;5232603;28;20083;-71
2021/10/13 10:34:28;;;;;;;5.75;2.22;;;;;;;13.29;100.00;102544.81;5230411;28;20025;-71
2021/10/13 10:36:59;;;;;;;6.32;1.88;;;;;;;13.28;100.00;102542.31;5233411;28;20036;-71
2021/10/13 10:39:53;;;;;;;5.43;1.70;;;;;;;13.54;100.00;102540.50;5231551;28;20033;-72
2021/10/13 10:43:18;;;;;;;7.53;2.05;;;;;;;13.67;100.00;102540.47;5231435;28;20063;-71
2021/10/13 10:45:58;;;;;;;4.60;1.40;;;;;;;13.55;100.00;102542.16;5167402;28;20182;-71
2021/10/13 10:48:44;;;;;;;8.50;2.40;;;;;;;13.62;100.00;102548.69;5168226;28;20057;-71
2021/10/13 10:51:15;;;;;;;6.10;1.70;;;;;;;13.46;100.00;102543.66;5220731;28;20515;-71
2021/10/13 10:53:47;;;;;;;6.93;1.45;;;;;;;13.48;100.00;102548.81;5232121;28;20021;-71
2021/10/13 10:56:27;;;;;;;8.05;1.42;;;;;;;13.53;100.00;102546.72;5230748;28;20036;-71
2021/10/13 10:59:07;;;;;;;6.18;1.48;;;;;;;13.36;100.00;102545.25;5231628;28;20486;-71
2021/10/13 11:02:09;;;;;;;4.35;1.20;;;;;;;13.43;100.00;102550.94;5233301;28;20083;-71
2021/10/13 11:04:40;;;;;;;5.45;1.25;;;;;;;13.08;100.00;102547.13;5232611;28;20017;-70
2021/10/13 11:07:17;;;;;;;5.32;1.40;;;;;;;13.19;100.00;102543.75;5233060;28;20017;-70
2021/10/13 11:10:01;;;;;;;5.07;1.33;;;;;;;13.18;100.00;102538.59;5229990;28;20469;-71
2021/10/13 11:12:49;;;;;;;4.00;1.40;;;;;;;13.26;100.00;102538.94;5232017;28;20029;-71
2021/10/13 11:15:23;;;;;;;4.97;1.05;;;;;;;13.19;100.00;102532.41;5231452;28;20092;-71
2021/10/13 11:18:08;;;;;;;4.43;1.42;;;;;;;13.27;100.00;102530.09;5231180;28;20049;-71
2021/10/13 11:20:40;;;;;;;5.22;1.67;;;;;;;13.41;100.00;102529.13;5231282;28;20052;-71
2021/10/13 11:23:12;;;;;;;5.90;1.65;;;;;;;13.52;100.00;102532.69;5231508;28;20154;-71
2021/10/13 11:25:43;;;;;;;5.35;1.40;;;;;;;13.62;100.00;102533.72;5231291;28;20029;-71
2021/10/13 11:28:14;;;;;;;6.85;1.50;;;;;;;13.72;100.00;102536.56;5232549;28;20566;-71
2021/10/13 11:30:48;;;;;;;6.38;1.10;;;;;;;13.78;100.00;102538.75;5230837;28;20037;-71
2021/10/13 11:33:21;;;;;;;5.47;1.35;;;;;;;13.81;100.00;102533.25;5231855;28;20032;-71
2021/10/13 11:35:59;;;;;;;7.90;1.50;;;;;;;13.93;100.00;102520.16;5231718;28;20392;-71
2021/10/13 11:38:32;;;;;;;5.18;1.50;;;;;;;14.06;100.00;102526.25;5230094;28;20064;-71
2021/10/13 11:41:15;;;;;;;3.97;0.80;;;;;;;14.20;100.00;102522.56;5230199;28;20029;-71
2021/10/13 11:43:46;;;;;;;4.97;1.13;;;;;;;14.20;100.00;102527.84;5232357;28;20442;-71
2021/10/13 11:46:18;;;;;;;5.55;0.95;;;;;;;14.23;100.00;102522.34;5231787;28;20024;-71
2021/10/13 11:48:49;;;;;;;3.80;0.80;;;;;;;14.28;100.00;102522.84;5231222;28;20033;-70
2021/10/13 11:51:21;;;;;;;5.78;1.50;;;;;;;14.25;100.00;102520.47;5226165;28;20104;-71
2021/10/13 11:53:52;;;;;;;7.43;1.90;;;;;;;14.38;100.00;102517.75;5225675;28;20048;-71